Time;durP1;ratioP1;P1;durP2;ratioP2;P2;SDS_P1;SDS_P2;PMS_P1;PMS_P2;Temp;Humidity;BMP_temperature;BMP_pressure;BME280_temperature;BME280_humidity;BME280_pressure;Samples;Min_cycle;Max_cycle;Signal;HPM_P1;HPM_P2
2023/07/23 00:01:39;;;;;;;7.30;3.42;;;;;15.00;96229.00;;;;8209832;28;20756;-70
2023/07/23 00:05:51;;;;;;;6.30;3.60;;;;;15.00;96222.00;;;;8213150;28;20253;-71
2023/07/23 00:09:54;;;;;;;7.10;3.10;;;;;15.00;96230.00;;;;8203734;28;20250;-71
2023/07/23 00:14:03;;;;;;;6.57;2.95;;;;;15.00;96222.00;;;;8211350;28;20247;-71
2023/07/23 00:18:06;;;;;;;5.43;3.22;;;;;15.20;96223.00;;;;8211861;28;20216;-71
2023/07/23 00:22:11;;;;;;;4.30;3.20;;;;;15.30;96215.00;;;;8212956;28;20626;-69
2023/07/23 00:26:17;;;;;;;4.45;3.00;;;;;15.40;96219.00;;;;8213260;28;20234;-71
2023/07/23 00:30:20;;;;;;;5.18;3.20;;;;;15.50;96216.00;;;;8216261;28;20209;-71
2023/07/23 00:34:26;;;;;;;6.55;3.10;;;;;15.70;96219.00;;;;8213520;28;20204;-71
2023/07/23 00:38:34;;;;;;;6.85;3.00;;;;;15.90;96207.00;;;;8212537;28;20243;-70
2023/07/23 00:42:38;;;;;;;10.52;3.63;;;;;16.00;96196.00;;;;8213043;28;20274;-71
2023/07/23 00:46:42;;;;;;;5.30;3.60;;;;;16.00;96199.00;;;;8210025;28;20240;-71
2023/07/23 00:50:47;;;;;;;7.28;2.85;;;;;16.10;96196.00;;;;8217289;28;20291;-71
2023/07/23 00:54:52;;;;;;;5.50;3.38;;;;;16.20;96197.00;;;;8205036;28;20203;-70
2023/07/23 00:58:56;;;;;;;3.40;3.10;;;;;16.30;96197.00;;;;8216131;28;20322;-70
2023/07/23 01:02:59;;;;;;;7.68;3.60;;;;;16.30;96194.00;;;;8209554;28;20227;-71
2023/07/23 01:07:09;;;;;;;6.18;3.00;;;;;16.40;96194.00;;;;8211746;28;20643;-71
2023/07/23 01:11:14;;;;;;;4.30;3.25;;;;;16.50;96198.00;;;;8210242;28;20215;-71
2023/07/23 01:15:18;;;;;;;4.93;3.13;;;;;16.60;96192.00;;;;8209954;28;20226;-71
2023/07/23 01:19:26;;;;;;;9.48;3.72;;;;;16.60;96197.00;;;;8206667;28;20231;-71
2023/07/23 01:23:33;;;;;;;4.47;3.55;;;;;16.70;96196.00;;;;8210319;28;20270;-71
2023/07/23 01:27:37;;;;;;;5.07;3.47;;;;;16.70;96187.00;;;;8210147;28;20627;-70
2023/07/23 01:31:40;;;;;;;6.45;2.85;;;;;16.70;96195.00;;;;8206526;28;20223;-70
2023/07/23 01:35:43;;;;;;;8.00;3.17;;;;;16.70;96192.00;;;;8200898;28;20204;-71
2023/07/23 01:39:50;;;;;;;4.10;3.17;;;;;16.80;96186.00;;;;8206510;28;20315;-70
2023/07/23 01:43:55;;;;;;;5.78;3.25;;;;;16.80;96191.00;;;;8210343;28;20681;-71
2023/07/23 01:47:58;;;;;;;7.45;3.30;;;;;16.80;96191.00;;;;8200383;28;20688;-71
2023/07/23 01:52:01;;;;;;;5.68;3.00;;;;;16.90;96186.00;;;;8203420;28;20282;-72
2023/07/23 01:56:11;;;;;;;6.75;3.40;;;;;16.90;96177.00;;;;8217711;28;20234;-71
2023/07/23 02:00:14;;;;;;;6.68;2.95;;;;;16.90;96177.00;;;;8213492;28;20235;-71
2023/07/23 02:04:20;;;;;;;4.03;2.85;;;;;16.80;96174.00;;;;8214005;28;20262;-71
2023/07/23 02:08:23;;;;;;;8.43;3.35;;;;;16.70;96177.00;;;;8208322;28;20221;-71
2023/07/23 02:12:28;;;;;;;8.60;3.10;;;;;16.70;96169.00;;;;8207385;28;20220;-71
2023/07/23 02:16:32;;;;;;;8.35;3.35;;;;;16.70;96167.00;;;;8209044;28;20684;-70
2023/07/23 02:20:36;;;;;;;7.75;3.88;;;;;16.60;96165.00;;;;8201786;28;20235;-71
2023/07/23 02:24:39;;;;;;;8.90;3.33;;;;;16.60;96172.00;;;;8205304;28;20242;-72
2023/07/23 02:28:44;;;;;;;9.88;3.35;;;;;16.40;96170.00;;;;8210910;28;20215;-70
2023/07/23 02:32:48;;;;;;;4.47;2.92;;;;;16.50;96179.00;;;;8200061;28;20203;-70
2023/07/23 02:36:51;;;;;;;6.72;3.35;;;;;16.60;96176.00;;;;8218889;28;20203;-71
2023/07/23 02:40:56;;;;;;;6.47;3.65;;;;;16.50;96172.00;;;;8216550;28;20235;-70
2023/07/23 02:45:08;;;;;;;5.63;3.28;;;;;16.50;96170.00;;;;8207712;28;20638;-71
2023/07/23 02:49:11;;;;;;;7.45;3.78;;;;;16.50;96167.00;;;;8218850;28;20207;-71
2023/07/23 02:53:14;;;;;;;5.18;3.85;;;;;16.50;96167.00;;;;8219934;28;20211;-71
2023/07/23 02:57:17;;;;;;;8.27;3.90;;;;;16.40;96176.00;;;;8223802;28;20204;-71
2023/07/23 03:01:27;;;;;;;10.07;4.07;;;;;16.40;96177.00;;;;8254769;23;20238;-70
2023/07/23 03:05:30;;;;;;;9.10;3.78;;;;;16.40;96171.00;;;;8225528;23;20885;-71
2023/07/23 03:09:33;;;;;;;5.95;3.45;;;;;16.30;96174.00;;;;8192038;29;20382;-71
2023/07/23 03:13:40;;;;;;;6.07;3.75;;;;;16.30;96171.00;;;;8190369;29;20680;-71
2023/07/23 03:17:45;;;;;;;6.68;3.60;;;;;16.30;96173.00;;;;8187657;29;20301;-71
2023/07/23 03:21:52;;;;;;;9.48;4.43;;;;;16.10;96168.00;;;;8191340;29;20286;-71
2023/07/23 03:25:58;;;;;;;6.70;4.18;;;;;15.90;96162.00;;;;8189377;29;20247;-71
2023/07/23 03:30:06;;;;;;;6.72;4.30;;;;;15.80;96169.00;;;;8190941;29;20288;-72
2023/07/23 03:34:12;;;;;;;10.30;4.05;;;;;15.70;96159.00;;;;8190892;29;20626;-70
2023/07/23 03:38:18;;;;;;;5.85;4.43;;;;;15.80;96160.00;;;;8188326;29;20279;-70
2023/07/23 03:42:22;;;;;;;5.90;4.05;;;;;15.70;96158.00;;;;8186567;29;20323;-71
2023/07/23 03:46:25;;;;;;;11.30;3.78;;;;;15.70;96157.00;;;;8189676;28;20204;-71
2023/07/23 03:50:30;;;;;;;8.13;4.22;;;;;15.60;96156.00;;;;8190419;29;20806;-71
2023/07/23 03:54:34;;;;;;;9.70;4.28;;;;;15.50;96160.00;;;;8190565;29;20291;-71
2023/07/23 03:58:37;;;;;;;5.70;3.95;;;;;15.40;96160.00;;;;8187967;29;20228;-71
2023/07/23 04:02:43;;;;;;;8.50;4.30;;;;;15.30;96161.00;;;;8189495;28;20613;-71
2023/07/23 04:06:48;;;;;;;7.50;4.13;;;;;15.30;96166.00;;;;8185760;29;20259;-71
2023/07/23 04:10:51;;;;;;;7.47;4.65;;;;;15.20;96168.00;;;;8186264;29;20319;-71
2023/07/23 04:15:01;;;;;;;6.30;4.43;;;;;15.20;96162.00;;;;8190967;29;20266;-72
2023/07/23 04:19:04;;;;;;;6.10;4.20;;;;;15.20;96159.00;;;;8174552;29;20820;-72
2023/07/23 04:23:11;;;;;;;9.45;4.18;;;;;15.40;96161.00;;;;8185089;29;20239;-71
2023/07/23 04:27:17;;;;;;;8.18;4.85;;;;;15.50;96165.00;;;;8182650;29;20235;-71
2023/07/23 04:31:22;;;;;;;5.97;3.83;;;;;15.60;96162.00;;;;8188060;29;20589;-72
2023/07/23 04:35:25;;;;;;;5.90;4.50;;;;;15.80;96160.00;;;;8186776;29;20287;-70
2023/07/23 04:39:34;;;;;;;5.82;4.20;;;;;16.10;96158.00;;;;8178311;29;20287;-72
2023/07/23 04:43:39;;;;;;;9.93;4.10;;;;;16.50;96164.00;;;;8183774;29;20259;-72
2023/07/23 04:47:44;;;;;;;8.68;4.57;;;;;16.90;96157.00;;;;8178690;29;20219;-72
2023/07/23 04:51:50;;;;;;;7.57;4.50;;;;;17.30;96166.00;;;;8187822;29;20649;-71
2023/07/23 04:55:59;;;;;;;8.68;4.22;;;;;17.70;96165.00;;;;8187023;29;20255;-72
2023/07/23 05:00:06;;;;;;;7.88;4.65;;;;;18.10;96164.00;;;;8184713;28;20247;-71
2023/07/23 05:04:12;;;;;;;6.72;4.10;;;;;18.50;96170.00;;;;8188403;28;20223;-72
2023/07/23 05:08:16;;;;;;;9.95;4.53;;;;;18.80;96170.00;;;;8186290;29;20208;-71
2023/07/23 05:12:24;;;;;;;10.95;4.40;;;;;19.20;96180.00;;;;8180481;29;20247;-72
2023/07/23 05:16:27;;;;;;;11.18;4.05;;;;;19.50;96177.00;;;;8187475;29;20212;-71
2023/07/23 05:20:35;;;;;;;8.35;4.90;;;;;19.90;96182.00;;;;8186749;29;20235;-72
2023/07/23 05:24:38;;;;;;;6.18;4.22;;;;;20.10;96187.00;;;;8182662;29;20208;-71
2023/07/23 05:28:49;;;;;;;7.85;3.28;;;;;20.40;96186.00;;;;8185921;29;20596;-71
2023/07/23 05:32:58;;;;;;;7.93;4.30;;;;;20.70;96191.00;;;;8181687;29;20318;-72
2023/07/23 05:37:01;;;;;;;5.47;4.13;;;;;21.10;96197.00;;;;8186559;29;20239;-72
2023/07/23 05:41:04;;;;;;;8.52;4.03;;;;;21.40;96203.00;;;;8185920;29;20745;-72
2023/07/23 05:45:10;;;;;;;6.72;4.22;;;;;21.40;96205.00;;;;8182697;28;20291;-72
2023/07/23 05:49:16;;;;;;;7.05;4.53;;;;;21.40;96202.00;;;;8182682;29;20232;-71
2023/07/23 05:53:28;;;;;;;7.25;3.65;;;;;21.50;96207.00;;;;8185327;29;20200;-72
2023/07/23 05:57:32;;;;;;;5.72;3.60;;;;;21.70;96206.00;;;;8179529;29;20307;-72
2023/07/23 06:01:39;;;;;;;8.45;3.80;;;;;21.80;96200.00;;;;8179167;29;20259;-71
2023/07/23 06:05:44;;;;;;;7.20;4.10;;;;;22.00;96199.00;;;;8186536;28;20589;-72
2023/07/23 06:09:47;;;;;;;6.68;4.03;;;;;22.20;96205.00;;;;8183833;28;20299;-74
2023/07/23 06:13:50;;;;;;;3.80;3.38;;;;;22.40;96206.00;;;;8190403;29;20793;-71
2023/07/23 06:17:57;;;;;;;6.82;3.72;;;;;22.90;96201.00;;;;8189731;29;20212;-73
2023/07/23 06:22:02;;;;;;;6.18;3.72;;;;;23.30;96205.00;;;;8187496;29;20708;-72
2023/07/23 06:26:05;;;;;;;4.18;3.33;;;;;23.80;96206.00;;;;8189493;29;20200;-73
2023/07/23 06:30:10;;;;;;;4.43;3.47;;;;;24.20;96203.00;;;;8189806;29;20246;-73
2023/07/23 06:34:14;;;;;;;6.70;3.63;;;;;24.70;96203.00;;;;8190487;28;20287;-73
2023/07/23 06:38:22;;;;;;;4.80;3.40;;;;;25.40;96202.00;;;;8182662;29;20295;-73
2023/07/23 06:42:25;;;;;;;3.92;3.53;;;;;26.30;96199.00;;;;8181999;29;20637;-73
2023/07/23 06:46:28;;;;;;;5.63;3.25;;;;;26.50;96194.00;;;;8188520;29;20232;-71
2023/07/23 06:50:35;;;;;;;4.88;3.10;;;;;26.80;96190.00;;;;8189909;29;20830;-70
2023/07/23 06:54:42;;;;;;;6.07;2.90;;;;;27.10;96198.00;;;;8191413;29;20208;-71
2023/07/23 06:58:46;;;;;;;3.33;2.88;;;;;27.10;96201.00;;;;8191892;29;20259;-74
2023/07/23 07:02:50;;;;;;;4.00;3.22;;;;;27.50;96205.00;;;;8190045;29;20285;-77
2023/07/23 07:06:58;;;;;;;3.90;2.63;;;;;27.30;96200.00;;;;8187898;28;20208;-74
2023/07/23 07:11:09;;;;;;;3.53;2.80;;;;;27.70;96202.00;;;;8184895;29;20718;-74
2023/07/23 07:15:13;;;;;;;3.15;2.60;;;;;27.80;96211.00;;;;8186773;29;20443;-74
2023/07/23 07:19:16;;;;;;;4.50;2.65;;;;;28.20;96207.00;;;;8188945;29;20227;-72
2023/07/23 07:23:21;;;;;;;6.63;3.30;;;;;28.90;96207.00;;;;8184643;28;20239;-73
2023/07/23 07:27:30;;;;;;;4.18;2.65;;;;;29.40;96214.00;;;;8189492;29;20219;-73
2023/07/23 07:31:33;;;;;;;4.40;2.90;;;;;29.30;96198.00;;;;8186444;29;20279;-75
2023/07/23 07:35:41;;;;;;;2.83;2.55;;;;;29.60;96204.00;;;;8189623;29;20227;-73
2023/07/23 07:39:46;;;;;;;5.05;3.05;;;;;29.80;96195.00;;;;8181404;29;20616;-74
2023/07/23 07:43:51;;;;;;;3.30;3.00;;;;;30.20;96199.00;;;;8167079;29;20294;-74
2023/07/23 07:47:55;;;;;;;4.15;2.88;;;;;30.40;96202.00;;;;8164600;28;20266;-73
2023/07/23 07:52:05;;;;;;;4.22;2.70;;;;;30.30;96193.00;;;;8185227;28;20209;-71
2023/07/23 07:56:17;;;;;;;3.03;2.83;;;;;30.30;96206.00;;;;8184188;28;20207;-71
2023/07/23 08:00:21;;;;;;;4.25;2.90;;;;;30.70;96208.00;;;;8170819;29;20757;-75
2023/07/23 08:04:27;;;;;;;6.65;3.28;;;;;30.50;96203.00;;;;8186998;29;20350;-70
2023/07/23 08:08:33;;;;;;;5.35;2.75;;;;;30.40;96193.00;;;;8182731;29;20726;-71
2023/07/23 08:12:41;;;;;;;3.58;2.90;;;;;30.10;96194.00;;;;8185871;29;20299;-70
2023/07/23 08:16:54;;;;;;;3.38;3.03;;;;;30.20;96194.00;;;;8180633;29;20295;-70
2023/07/23 08:21:00;;;;;;;3.60;3.10;;;;;31.20;96185.00;;;;8186647;29;20255;-70
2023/07/23 08:25:04;;;;;;;2.95;2.70;;;;;31.40;96185.00;;;;8181618;29;20260;-70
2023/07/23 08:29:10;;;;;;;3.38;3.08;;;;;31.60;96175.00;;;;8183941;29;20236;-68
2023/07/23 08:33:13;;;;;;;2.85;2.45;;;;;31.90;96179.00;;;;8182888;28;20303;-73
2023/07/23 08:37:17;;;;;;;3.22;2.50;;;;;32.20;96176.00;;;;8186818;29;20478;-68
2023/07/23 08:41:32;;;;;;;2.67;2.47;;;;;32.00;96168.00;;;;8181624;29;20215;-74
2023/07/23 08:46:13;;;;;;;5.03;2.70;;;;;31.80;96179.00;;;;8179123;29;20211;-70
2023/07/23 08:50:20;;;;;;;2.85;2.53;;;;;32.20;96177.00;;;;8182070;29;20208;-69
2023/07/23 08:54:25;;;;;;;3.17;2.63;;;;;32.30;96169.00;;;;8182912;29;20204;-71
2023/07/23 08:58:29;;;;;;;2.53;2.08;;;;;31.80;96173.00;;;;8183366;28;20295;-68
2023/07/23 09:02:37;;;;;;;2.17;2.08;;;;;31.30;96168.00;;;;8177120;29;20753;-69
2023/07/23 09:06:42;;;;;;;2.65;2.45;;;;;31.50;96168.00;;;;8184315;29;20216;-70
2023/07/23 09:10:49;;;;;;;4.10;2.70;;;;;32.00;96163.00;;;;8183779;29;20865;-69
2023/07/23 09:14:54;;;;;;;2.72;2.53;;;;;32.10;96153.00;;;;8183875;29;20200;-70
2023/07/23 09:19:03;;;;;;;2.67;2.47;;;;;31.90;96157.00;;;;8169449;29;20696;-72
2023/07/23 09:23:08;;;;;;;2.40;2.20;;;;;32.40;96151.00;;;;8178307;29;20238;-72
2023/07/23 09:27:11;;;;;;;3.33;2.33;;;;;32.40;96161.00;;;;8187115;29;20256;-70
2023/07/23 09:31:26;;;;;;;2.63;2.42;;;;;32.20;96151.00;;;;8184187;29;20204;-68
2023/07/23 09:35:32;;;;;;;2.70;2.33;;;;;32.20;96166.00;;;;8182068;29;20208;-69
2023/07/23 09:39:41;;;;;;;4.13;2.25;;;;;32.40;96144.00;;;;8180660;29;20299;-70
2023/07/23 09:43:47;;;;;;;2.50;2.30;;;;;32.30;96158.00;;;;8180460;28;20311;-71
2023/07/23 09:47:54;;;;;;;2.45;2.25;;;;;32.90;96159.00;;;;8177122;29;20208;-73
2023/07/23 09:52:17;;;;;;;3.00;2.60;;;;;33.50;96149.00;;;;8184825;29;20306;-73
2023/07/23 09:56:23;;;;;;;4.53;2.33;;;;;33.50;96157.00;;;;8179746;29;20235;-68
2023/07/23 10:00:26;;;;;;;5.35;2.85;;;;;33.40;96149.00;;;;8167633;29;20259;-71
2023/07/23 10:04:32;;;;;;;4.55;2.70;;;;;33.90;96156.00;;;;8164188;29;20329;-66
2023/07/23 10:08:40;;;;;;;4.18;2.45;;;;;34.10;96149.00;;;;8179306;29;20208;-67
2023/07/23 10:12:43;;;;;;;3.65;2.60;;;;;33.90;96147.00;;;;8182808;29;21081;-68
2023/07/23 10:16:49;;;;;;;3.95;2.42;;;;;33.80;96159.00;;;;8181879;29;20210;-70
2023/07/23 10:20:54;;;;;;;3.60;2.90;;;;;33.60;96141.00;;;;8181813;29;20204;-69
2023/07/23 10:25:04;;;;;;;4.72;2.72;;;;;33.10;96133.00;;;;8176169;29;20323;-69
2023/07/23 10:29:11;;;;;;;5.43;3.13;;;;;32.30;96134.00;;;;8174004;28;20295;-67
2023/07/23 10:33:33;;;;;;;5.07;2.35;;;;;32.40;96129.00;;;;8168514;29;20237;-70
2023/07/23 10:37:36;;;;;;;4.22;2.88;;;;;32.70;96128.00;;;;8178181;28;20239;-71
2023/07/23 10:41:55;;;;;;;2.60;2.40;;;;;33.00;96121.00;;;;8177118;29;20208;-67
2023/07/23 10:46:03;;;;;;;3.75;2.72;;;;;33.50;96125.00;;;;8180932;29;20774;-68
2023/07/23 10:50:11;;;;;;;4.75;2.75;;;;;33.30;96118.00;;;;8161554;29;20216;-69
2023/07/23 10:54:17;;;;;;;6.20;3.22;;;;;33.20;96099.00;;;;8184140;29;20251;-71
2023/07/23 10:58:23;;;;;;;4.35;3.03;;;;;33.80;96090.00;;;;8187563;28;21010;-68
2023/07/23 11:02:27;;;;;;;4.50;3.28;;;;;33.50;96094.00;;;;8188329;28;20286;-70
2023/07/23 11:06:34;;;;;;;7.80;4.40;;;;;33.00;96098.00;;;;8179845;29;20303;-70
2023/07/23 11:10:46;;;;;;;12.63;6.43;;;;;33.30;96095.00;;;;8179165;29;20208;-70
2023/07/23 11:14:52;;;;;;;4.38;3.15;;;;;32.90;96083.00;;;;8179911;29;20724;-67
2023/07/23 11:18:56;;;;;;;3.38;2.70;;;;;32.80;96086.00;;;;8178209;29;20235;-71
2023/07/23 11:22:59;;;;;;;3.10;2.80;;;;;32.60;96088.00;;;;8182568;29;20339;-70
2023/07/23 11:27:04;;;;;;;3.45;3.17;;;;;32.30;96085.00;;;;8182882;29;20246;-68
2023/07/23 11:31:09;;;;;;;3.10;2.50;;;;;31.90;96077.00;;;;8179828;29;20201;-70
2023/07/23 11:35:18;;;;;;;5.47;2.90;;;;;31.90;96081.00;;;;8178837;29;20291;-69
2023/07/23 11:39:26;;;;;;;2.92;2.70;;;;;32.10;96075.00;;;;8178393;29;20304;-70
2023/07/23 11:43:33;;;;;;;4.78;2.80;;;;;32.80;96070.00;;;;8178927;29;20388;-68
2023/07/23 11:47:51;;;;;;;4.65;3.17;;;;;33.30;96074.00;;;;8176687;29;20210;-70
2023/07/23 11:51:58;;;;;;;6.10;3.05;;;;;33.70;96077.00;;;;8165061;28;20237;-71
2023/07/23 11:56:06;;;;;;;4.90;3.70;;;;;33.60;96071.00;;;;8178097;29;20239;-71
2023/07/23 12:00:12;;;;;;;11.63;2.90;;;;;33.90;96060.00;;;;8177535;29;20209;-69
2023/07/23 12:04:17;;;;;;;2.95;2.75;;;;;33.70;96063.00;;;;8176823;29;20236;-71
2023/07/23 12:08:20;;;;;;;16.50;4.10;;;;;33.70;96057.00;;;;8174626;28;20223;-69
2023/07/23 12:12:23;;;;;;;6.30;3.25;;;;;34.00;96049.00;;;;8185922;29;20299;-72
2023/07/23 12:16:36;;;;;;;3.78;3.47;;;;;34.60;96038.00;;;;8181474;29;20204;-71
2023/07/23 12:20:40;;;;;;;6.05;2.55;;;;;34.80;96052.00;;;;8175856;29;20230;-71
2023/07/23 12:24:48;;;;;;;2.70;2.50;;;;;34.60;96041.00;;;;8177589;29;20232;-70
2023/07/23 12:28:51;;;;;;;7.47;2.90;;;;;34.50;96039.00;;;;8178711;29;20282;-70
2023/07/23 12:32:54;;;;;;;2.92;2.72;;;;;33.80;96039.00;;;;8186287;29;20712;-71
2023/07/23 12:37:04;;;;;;;4.15;2.90;;;;;33.50;96034.00;;;;8180144;29;20203;-70
2023/07/23 12:41:07;;;;;;;3.30;3.00;;;;;33.30;96017.00;;;;8175669;29;20317;-70
2023/07/23 12:45:11;;;;;;;7.93;3.00;;;;;33.60;96019.00;;;;8184776;29;20315;-71
2023/07/23 12:49:14;;;;;;;2.95;2.65;;;;;33.70;96010.00;;;;8186478;29;20373;-70
2023/07/23 12:53:18;;;;;;;3.53;3.22;;;;;33.40;96021.00;;;;8187058;29;20299;-70
2023/07/23 12:57:22;;;;;;;6.03;3.47;;;;;33.30;96007.00;;;;8185695;29;20235;-69
2023/07/23 13:01:25;;;;;;;4.50;3.33;;;;;33.40;96010.00;;;;8177048;29;20638;-69
2023/07/23 13:05:28;;;;;;;8.38;3.58;;;;;33.30;95993.00;;;;8184266;28;20723;-71
2023/07/23 13:09:35;;;;;;;8.18;3.15;;;;;33.50;95998.00;;;;8178191;29;20247;-70
2023/07/23 13:13:41;;;;;;;4.28;3.30;;;;;33.40;95992.00;;;;8183197;29;20211;-70
2023/07/23 13:17:47;;;;;;;5.88;3.20;;;;;33.30;95989.00;;;;8182303;28;20322;-70
2023/07/23 13:21:51;;;;;;;3.88;3.50;;;;;33.10;95994.00;;;;8166036;29;20276;-70
2023/07/23 13:25:56;;;;;;;5.63;3.58;;;;;32.90;95994.00;;;;8184580;29;20315;-70
2023/07/23 13:30:01;;;;;;;4.78;3.72;;;;;33.60;95985.00;;;;8182881;29;20217;-73
2023/07/23 13:34:07;;;;;;;6.10;4.28;;;;;34.60;95961.00;;;;8178192;29;20670;-73
2023/07/23 13:38:10;;;;;;;10.25;4.25;;;;;35.10;95972.00;;;;8178247;29;20204;-73
2023/07/23 13:42:14;;;;;;;6.43;4.00;;;;;35.10;95967.00;;;;8183116;29;20700;-73
2023/07/23 13:46:23;;;;;;;6.72;3.83;;;;;35.50;95959.00;;;;8181776;29;20234;-73
2023/07/23 13:50:29;;;;;;;6.43;4.57;;;;;35.90;95964.00;;;;8177198;29;20208;-73
2023/07/23 13:54:54;;;;;;;6.88;4.15;;;;;35.20;95958.00;;;;8182185;29;20207;-73
2023/07/23 13:58:58;;;;;;;5.07;4.38;;;;;34.80;95944.00;;;;8182730;29;20235;-73
2023/07/23 14:03:04;;;;;;;5.63;4.05;;;;;34.50;95953.00;;;;8184223;29;20238;-74
2023/07/23 14:07:11;;;;;;;6.70;4.13;;;;;34.10;95948.00;;;;8177639;29;20229;-74
2023/07/23 14:11:14;;;;;;;8.70;4.18;;;;;34.10;95953.00;;;;8173537;28;20228;-74
2023/07/23 14:15:19;;;;;;;6.18;4.85;;;;;34.50;95943.00;;;;8181568;29;20211;-74
2023/07/23 14:19:23;;;;;;;5.95;4.30;;;;;34.90;95952.00;;;;8178436;29;20208;-74
2023/07/23 14:23:26;;;;;;;5.47;4.07;;;;;34.50;95955.00;;;;8182350;29;20215;-73
2023/07/23 14:27:32;;;;;;;5.28;4.22;;;;;33.60;95948.00;;;;8184077;29;20307;-76
2023/07/23 14:31:40;;;;;;;5.75;4.18;;;;;33.50;95947.00;;;;8184418;28;20307;-73
2023/07/23 14:35:43;;;;;;;5.90;4.28;;;;;33.60;95947.00;;;;8192067;29;20205;-70
2023/07/23 14:39:47;;;;;;;6.15;3.83;;;;;33.30;95946.00;;;;8188431;29;20208;-67
2023/07/23 14:43:50;;;;;;;5.80;4.20;;;;;33.50;95946.00;;;;8184363;29;20259;-76
2023/07/23 14:47:57;;;;;;;7.50;4.60;;;;;33.80;95937.00;;;;8185379;29;20556;-74
2023/07/23 14:52:00;;;;;;;6.07;4.60;;;;;34.00;95949.00;;;;8159086;29;20211;-76
2023/07/23 14:56:03;;;;;;;5.70;4.30;;;;;34.00;95945.00;;;;8157162;29;20832;-75
2023/07/23 15:00:11;;;;;;;10.93;4.30;;;;;34.20;95950.00;;;;8157996;29;20898;-75
2023/07/23 15:04:15;;;;;;;6.05;4.28;;;;;34.60;95956.00;;;;8157703;29;20275;-74
2023/07/23 15:08:21;;;;;;;10.43;4.35;;;;;34.10;95949.00;;;;8159675;29;20224;-75
2023/07/23 15:12:30;;;;;;;8.48;4.55;;;;;33.60;95964.00;;;;8157174;29;20231;-74
2023/07/23 15:16:36;;;;;;;5.20;4.32;;;;;33.30;95962.00;;;;8158565;29;20232;-74
2023/07/23 15:20:44;;;;;;;7.20;4.22;;;;;32.90;95970.00;;;;8157984;29;20272;-75
2023/07/23 15:24:48;;;;;;;7.25;4.40;;;;;32.60;95978.00;;;;8159671;29;20264;-73
2023/07/23 15:28:57;;;;;;;5.75;4.00;;;;;32.20;95980.00;;;;8153060;29;20603;-72
2023/07/23 15:33:00;;;;;;;6.47;4.55;;;;;32.10;95974.00;;;;8139538;29;20262;-71
2023/07/23 15:37:06;;;;;;;13.93;4.82;;;;;31.90;95977.00;;;;8157259;29;20212;-71
2023/07/23 15:41:12;;;;;;;5.85;4.50;;;;;31.50;95986.00;;;;8156043;29;20244;-71
2023/07/23 15:45:18;;;;;;;6.65;4.78;;;;;31.10;95990.00;;;;8151860;29;20239;-71
2023/07/23 15:49:21;;;;;;;7.55;4.50;;;;;30.60;96000.00;;;;8151951;29;20205;-71
2023/07/23 15:53:29;;;;;;;7.68;4.70;;;;;30.20;96005.00;;;;8155621;29;20296;-71
2023/07/23 15:57:32;;;;;;;8.93;4.85;;;;;29.80;96004.00;;;;8155430;29;20211;-70
2023/07/23 16:01:35;;;;;;;7.35;4.50;;;;;29.50;96011.00;;;;8155835;29;20240;-70
2023/07/23 16:05:38;;;;;;;9.45;5.05;;;;;29.10;96023.00;;;;8157069;29;20253;-69
2023/07/23 16:09:51;;;;;;;8.52;4.60;;;;;28.80;96011.00;;;;8150204;29;20200;-70
2023/07/23 16:13:55;;;;;;;10.55;5.18;;;;;28.70;96019.00;;;;8152564;29;20809;-70
2023/07/23 16:18:02;;;;;;;9.75;5.32;;;;;28.70;96024.00;;;;8153816;29;20205;-71
2023/07/23 16:22:05;;;;;;;9.25;5.35;;;;;28.50;96020.00;;;;8153147;29;20210;-71
2023/07/23 16:26:10;;;;;;;10.35;4.90;;;;;28.20;96020.00;;;;8148788;29;20455;-72
2023/07/23 16:30:13;;;;;;;7.53;5.15;;;;;28.20;96025.00;;;;8154645;29;20211;-71
2023/07/23 16:34:17;;;;;;;8.75;5.05;;;;;28.30;96007.00;;;;8154025;29;20235;-68
2023/07/23 16:38:23;;;;;;;9.95;6.03;;;;;28.60;96017.00;;;;8143307;29;20208;-69
2023/07/23 16:42:30;;;;;;;12.70;5.50;;;;;28.80;96018.00;;;;8155955;29;20221;-71
2023/07/23 16:46:34;;;;;;;8.77;5.07;;;;;29.00;96020.00;;;;8139224;29;20274;-73
2023/07/23 16:50:40;;;;;;;6.32;4.72;;;;;29.00;95995.00;;;;8155272;29;20805;-70
2023/07/23 16:54:47;;;;;;;9.57;4.35;;;;;29.00;96009.00;;;;8155932;29;20216;-74
2023/07/23 16:58:57;;;;;;;5.45;4.55;;;;;28.80;96006.00;;;;8153610;29;20296;-71
2023/07/23 17:03:00;;;;;;;6.65;4.20;;;;;28.60;96014.00;;;;8154082;29;20392;-74
2023/07/23 17:07:04;;;;;;;8.65;4.07;;;;;28.40;96020.00;;;;8155667;29;20243;-74
2023/07/23 17:11:21;;;;;;;6.50;4.65;;;;;28.30;96018.00;;;;8141816;29;20208;-73
2023/07/23 17:15:26;;;;;;;8.07;4.88;;;;;28.00;96021.00;;;;8152630;29;20647;-71
2023/07/23 17:19:34;;;;;;;9.50;4.80;;;;;27.70;96014.00;;;;8156871;29;20220;-71
2023/07/23 17:23:39;;;;;;;6.43;4.53;;;;;27.60;96030.00;;;;8156293;29;20267;-71
2023/07/23 17:27:45;;;;;;;8.13;4.35;;;;;27.70;96020.00;;;;8149495;29;20235;-71
2023/07/23 17:32:14;;;;;;;13.30;4.60;;;;;27.80;96019.00;;;;8149139;29;20235;-71
2023/07/23 17:36:17;;;;;;;9.43;4.55;;;;;27.80;96022.00;;;;8150271;29;20201;-71
2023/07/23 17:40:20;;;;;;;9.50;4.60;;;;;27.90;96021.00;;;;8154224;29;20666;-73
2023/07/23 17:44:25;;;;;;;6.55;4.50;;;;;27.80;96024.00;;;;8152802;29;20205;-71
2023/07/23 17:48:44;;;;;;;15.68;5.13;;;;;27.70;96011.00;;;;8149586;29;20328;-76
2023/07/23 17:52:49;;;;;;;5.75;4.35;;;;;27.50;96010.00;;;;8155101;29;20240;-70
2023/07/23 17:56:54;;;;;;;5.32;3.90;;;;;27.30;96010.00;;;;8149217;29;20307;-72
2023/07/23 18:00:57;;;;;;;7.97;4.38;;;;;27.10;95997.00;;;;8147035;29;20304;-74
2023/07/23 18:05:02;;;;;;;5.88;3.83;;;;;27.00;95995.00;;;;8152977;29;20263;-73
2023/07/23 18:09:07;;;;;;;14.88;4.05;;;;;26.90;95989.00;;;;8152742;29;20247;-69
2023/07/23 18:13:10;;;;;;;12.48;4.55;;;;;26.80;95993.00;;;;8156396;29;20655;-67
2023/07/23 18:17:14;;;;;;;17.13;4.45;;;;;26.70;95984.00;;;;8158083;29;20565;-67
2023/07/23 18:21:23;;;;;;;10.93;4.10;;;;;26.60;95980.00;;;;8157416;29;20213;-68
2023/07/23 18:25:26;;;;;;;18.25;4.15;;;;;26.50;95980.00;;;;8154883;29;20320;-68
2023/07/23 18:29:29;;;;;;;14.15;4.13;;;;;26.40;95975.00;;;;8160272;29;20251;-68
2023/07/23 18:33:33;;;;;;;16.90;4.30;;;;;26.40;95976.00;;;;8159372;29;20295;-71
2023/07/23 18:37:40;;;;;;;11.75;4.28;;;;;26.30;95961.00;;;;8158469;29;20213;-71
2023/07/23 18:41:44;;;;;;;7.20;3.95;;;;;26.20;95959.00;;;;8154418;29;20590;-69
2023/07/23 18:45:47;;;;;;;6.57;3.97;;;;;25.90;95966.00;;;;8150949;29;20240;-68
2023/07/23 18:49:50;;;;;;;7.80;4.18;;;;;25.70;95962.00;;;;8157254;29;20204;-70
2023/07/23 18:53:57;;;;;;;9.95;4.45;;;;;25.50;95951.00;;;;8157828;29;20324;-68
2023/07/23 18:58:01;;;;;;;7.43;4.25;;;;;25.30;95959.00;;;;8159180;29;20296;-69
2023/07/23 19:02:04;;;;;;;8.10;4.10;;;;;25.00;95963.00;;;;8157829;29;20325;-69
2023/07/23 19:06:10;;;;;;;7.32;3.85;;;;;24.80;95954.00;;;;8158232;29;20237;-70
2023/07/23 19:10:15;;;;;;;10.82;4.13;;;;;24.40;95949.00;;;;8157645;29;20209;-70
2023/07/23 19:14:23;;;;;;;9.02;4.45;;;;;24.00;95948.00;;;;8158297;29;20259;-70
2023/07/23 19:18:28;;;;;;;11.15;3.85;;;;;23.80;95958.00;;;;8157060;29;20607;-70
2023/07/23 19:22:31;;;;;;;13.48;4.28;;;;;23.60;95959.00;;;;8157645;29;20207;-70
2023/07/23 19:26:39;;;;;;;8.63;4.22;;;;;23.30;95960.00;;;;8154120;29;20990;-70
2023/07/23 19:30:44;;;;;;;6.65;4.28;;;;;23.10;95961.00;;;;8156650;29;20239;-69
2023/07/23 19:34:50;;;;;;;8.23;4.75;;;;;22.90;95967.00;;;;8155729;29;20223;-69
2023/07/23 19:38:54;;;;;;;6.30;4.40;;;;;22.60;95952.00;;;;8154780;29;20225;-69
2023/07/23 19:42:58;;;;;;;8.57;4.35;;;;;22.40;95945.00;;;;8155527;29;20643;-70
2023/07/23 19:47:04;;;;;;;7.82;4.28;;;;;22.20;95942.00;;;;8157323;29;20236;-69
2023/07/23 19:51:09;;;;;;;8.10;3.95;;;;;21.90;95923.00;;;;8158928;29;20209;-68
2023/07/23 19:55:13;;;;;;;9.95;5.28;;;;;21.70;95928.00;;;;8157492;29;20848;-70
2023/07/23 19:59:18;;;;;;;9.55;4.38;;;;;21.60;95936.00;;;;8156877;29;20216;-68
2023/07/23 20:03:21;;;;;;;9.50;4.40;;;;;21.50;95931.00;;;;8156489;29;20241;-68
2023/07/23 20:07:25;;;;;;;10.75;5.13;;;;;21.50;95939.00;;;;8157187;29;20331;-68
2023/07/23 20:11:28;;;;;;;12.95;4.80;;;;;21.40;95941.00;;;;8155991;29;20197;-68
2023/07/23 20:15:33;;;;;;;12.43;4.68;;;;;21.30;95936.00;;;;8152672;29;20544;-67
2023/07/23 20:19:37;;;;;;;9.30;4.72;;;;;21.30;95940.00;;;;8154737;29;20211;-67
2023/07/23 20:23:46;;;;;;;9.68;4.97;;;;;21.20;95942.00;;;;8155500;29;20200;-67
2023/07/23 20:27:49;;;;;;;7.88;5.05;;;;;21.10;95938.00;;;;8152519;29;20241;-68